sensor_id;sensor_type;location;lat;lon;timestamp;temperature;humidity
25360;DHT22;13311;51.386;0.016;2024-01-07T00:03:19;7.50;96.10
25360;DHT22;13311;51.386;0.016;2024-01-07T00:08:19;7.40;96.20
25360;DHT22;13311;51.386;0.016;2024-01-07T00:13:21;7.40;96.20
25360;DHT22;13311;51.386;0.016;2024-01-07T00:18:22;7.40;96.50
25360;DHT22;13311;51.386;0.016;2024-01-07T00:23:24;7.20;96.50
25360;DHT22;13311;51.386;0.016;2024-01-07T00:28:25;7.10;96.60
25360;DHT22;13311;51.386;0.016;2024-01-07T00:33:25;7.10;96.60
25360;DHT22;13311;51.386;0.016;2024-01-07T00:38:26;7.00;96.50
25360;DHT22;13311;51.386;0.016;2024-01-07T00:43:27;7.00;96.40
25360;DHT22;13311;51.386;0.016;2024-01-07T00:48:27;7.00;96.40
25360;DHT22;13311;51.386;0.016;2024-01-07T00:53:28;7.00;96.70
25360;DHT22;13311;51.386;0.016;2024-01-07T00:58:29;7.10;96.50
25360;DHT22;13311;51.386;0.016;2024-01-07T01:03:29;6.80;96.40
25360;DHT22;13311;51.386;0.016;2024-01-07T01:08:30;6.80;96.40
25360;DHT22;13311;51.386;0.016;2024-01-07T01:13:31;6.70;96.40
25360;DHT22;13311;51.386;0.016;2024-01-07T01:18:32;6.80;96.20
25360;DHT22;13311;51.386;0.016;2024-01-07T01:23:32;6.70;96.20
25360;DHT22;13311;51.386;0.016;2024-01-07T01:28:33;6.60;96.00
25360;DHT22;13311;51.386;0.016;2024-01-07T01:33:34;6.60;95.80
25360;DHT22;13311;51.386;0.016;2024-01-07T01:38:34;6.40;95.80
25360;DHT22;13311;51.386;0.016;2024-01-07T01:43:35;6.40;95.90
25360;DHT22;13311;51.386;0.016;2024-01-07T01:48:36;6.40;95.60
25360;DHT22;13311;51.386;0.016;2024-01-07T01:53:37;6.40;95.40
25360;DHT22;13311;51.386;0.016;2024-01-07T01:58:40;6.30;95.30
25360;DHT22;13311;51.386;0.016;2024-01-07T02:03:41;6.30;95.10
25360;DHT22;13311;51.386;0.016;2024-01-07T02:08:41;6.30;95.20
25360;DHT22;13311;51.386;0.016;2024-01-07T02:13:43;6.20;95.20
25360;DHT22;13311;51.386;0.016;2024-01-07T02:18:44;6.20;95.10
25360;DHT22;13311;51.386;0.016;2024-01-07T02:23:45;6.20;95.00
25360;DHT22;13311;51.386;0.016;2024-01-07T02:28:46;6.10;94.90
25360;DHT22;13311;51.386;0.016;2024-01-07T02:33:47;6.10;94.90
25360;DHT22;13311;51.386;0.016;2024-01-07T02:38:48;6.10;94.60
25360;DHT22;13311;51.386;0.016;2024-01-07T02:43:48;6.10;94.90
25360;DHT22;13311;51.386;0.016;2024-01-07T02:48:49;6.00;95.00
25360;DHT22;13311;51.386;0.016;2024-01-07T02:53:50;6.00;95.00
25360;DHT22;13311;51.386;0.016;2024-01-07T02:58:50;6.00;95.30
25360;DHT22;13311;51.386;0.016;2024-01-07T03:03:52;5.90;95.00
25360;DHT22;13311;51.386;0.016;2024-01-07T03:08:53;5.80;95.20
25360;DHT22;13311;51.386;0.016;2024-01-07T03:13:58;5.90;95.20
25360;DHT22;13311;51.386;0.016;2024-01-07T03:18:59;5.80;95.10
25360;DHT22;13311;51.386;0.016;2024-01-07T03:23:59;6.00;95.10
25360;DHT22;13311;51.386;0.016;2024-01-07T03:29:00;5.90;95.10
25360;DHT22;13311;51.386;0.016;2024-01-07T03:34:02;5.80;95.00
25360;DHT22;13311;51.386;0.016;2024-01-07T03:39:03;5.80;95.10
25360;DHT22;13311;51.386;0.016;2024-01-07T03:44:04;5.70;94.90
25360;DHT22;13311;51.386;0.016;2024-01-07T03:49:04;5.80;94.90
25360;DHT22;13311;51.386;0.016;2024-01-07T03:54:05;5.70;94.80
25360;DHT22;13311;51.386;0.016;2024-01-07T03:59:06;5.70;94.70
25360;DHT22;13311;51.386;0.016;2024-01-07T04:04:07;5.80;94.70
25360;DHT22;13311;51.386;0.016;2024-01-07T04:09:08;5.80;94.00
25360;DHT22;13311;51.386;0.016;2024-01-07T04:14:09;5.90;93.90
25360;DHT22;13311;51.386;0.016;2024-01-07T04:19:10;5.70;94.00
25360;DHT22;13311;51.386;0.016;2024-01-07T04:24:10;5.60;93.80
25360;DHT22;13311;51.386;0.016;2024-01-07T04:29:11;5.60;94.10
25360;DHT22;13311;51.386;0.016;2024-01-07T04:34:12;5.70;93.80
25360;DHT22;13311;51.386;0.016;2024-01-07T04:39:13;5.70;93.90
25360;DHT22;13311;51.386;0.016;2024-01-07T04:44:13;5.70;93.80
25360;DHT22;13311;51.386;0.016;2024-01-07T04:49:14;5.60;93.70
25360;DHT22;13311;51.386;0.016;2024-01-07T04:54:15;5.50;93.80
25360;DHT22;13311;51.386;0.016;2024-01-07T04:59:15;5.50;93.80
25360;DHT22;13311;51.386;0.016;2024-01-07T05:04:16;5.40;93.90
25360;DHT22;13311;51.386;0.016;2024-01-07T05:09:17;5.40;93.90
25360;DHT22;13311;51.386;0.016;2024-01-07T05:14:18;5.40;93.80
25360;DHT22;13311;51.386;0.016;2024-01-07T05:19:18;5.30;94.00
25360;DHT22;13311;51.386;0.016;2024-01-07T05:24:19;5.30;94.10
25360;DHT22;13311;51.386;0.016;2024-01-07T05:29:20;5.30;94.40
25360;DHT22;13311;51.386;0.016;2024-01-07T05:34:21;5.40;94.20
25360;DHT22;13311;51.386;0.016;2024-01-07T05:39:22;5.50;94.20
25360;DHT22;13311;51.386;0.016;2024-01-07T05:44:22;5.40;94.30
25360;DHT22;13311;51.386;0.016;2024-01-07T05:49:23;5.50;94.10
25360;DHT22;13311;51.386;0.016;2024-01-07T05:54:24;5.50;94.10
25360;DHT22;13311;51.386;0.016;2024-01-07T05:59:25;5.50;94.30
25360;DHT22;13311;51.386;0.016;2024-01-07T06:04:26;5.50;94.10
25360;DHT22;13311;51.386;0.016;2024-01-07T06:09:26;5.50;94.40
25360;DHT22;13311;51.386;0.016;2024-01-07T06:14:28;5.50;94.30
25360;DHT22;13311;51.386;0.016;2024-01-07T06:19:29;5.40;94.40
25360;DHT22;13311;51.386;0.016;2024-01-07T06:24:30;5.40;94.30
25360;DHT22;13311;51.386;0.016;2024-01-07T06:29:31;5.30;94.40
25360;DHT22;13311;51.386;0.016;2024-01-07T06:34:32;5.30;94.70
25360;DHT22;13311;51.386;0.016;2024-01-07T06:39:33;5.40;94.50
25360;DHT22;13311;51.386;0.016;2024-01-07T06:44:34;5.30;94.60
25360;DHT22;13311;51.386;0.016;2024-01-07T06:49:35;5.20;94.80
25360;DHT22;13311;51.386;0.016;2024-01-07T06:54:36;5.20;95.10
25360;DHT22;13311;51.386;0.016;2024-01-07T06:59:37;5.20;95.00
25360;DHT22;13311;51.386;0.016;2024-01-07T07:04:37;5.30;95.20
25360;DHT22;13311;51.386;0.016;2024-01-07T07:09:38;5.20;95.30
25360;DHT22;13311;51.386;0.016;2024-01-07T07:14:39;5.20;95.40
25360;DHT22;13311;51.386;0.016;2024-01-07T07:19:40;5.10;95.60
25360;DHT22;13311;51.386;0.016;2024-01-07T07:24:41;5.00;95.90
25360;DHT22;13311;51.386;0.016;2024-01-07T07:29:42;5.00;96.00
25360;DHT22;13311;51.386;0.016;2024-01-07T07:34:42;5.00;96.30
25360;DHT22;13311;51.386;0.016;2024-01-07T07:39:43;5.00;96.30
25360;DHT22;13311;51.386;0.016;2024-01-07T07:44:44;5.00;96.30
25360;DHT22;13311;51.386;0.016;2024-01-07T07:49:44;4.90;96.50
25360;DHT22;13311;51.386;0.016;2024-01-07T07:54:45;4.90;96.60
25360;DHT22;13311;51.386;0.016;2024-01-07T07:59:47;4.80;96.70
25360;DHT22;13311;51.386;0.016;2024-01-07T08:04:48;4.80;96.80
25360;DHT22;13311;51.386;0.016;2024-01-07T08:09:49;4.80;97.00
25360;DHT22;13311;51.386;0.016;2024-01-07T08:14:50;4.80;97.10
25360;DHT22;13311;51.386;0.016;2024-01-07T08:19:50;4.80;97.20
25360;DHT22;13311;51.386;0.016;2024-01-07T08:24:52;4.80;97.60
25360;DHT22;13311;51.386;0.016;2024-01-07T08:29:54;4.90;97.30
25360;DHT22;13311;51.386;0.016;2024-01-07T08:34:54;4.90;97.40
25360;DHT22;13311;51.386;0.016;2024-01-07T08:39:55;4.90;97.50
25360;DHT22;13311;51.386;0.016;2024-01-07T08:44:56;4.90;97.60
25360;DHT22;13311;51.386;0.016;2024-01-07T08:49:57;5.00;97.60
25360;DHT22;13311;51.386;0.016;2024-01-07T08:54:58;4.90;97.60
25360;DHT22;13311;51.386;0.016;2024-01-07T08:59:59;5.00;97.60
25360;DHT22;13311;51.386;0.016;2024-01-07T09:04:59;5.10;97.40
25360;DHT22;13311;51.386;0.016;2024-01-07T09:10:01;5.20;97.20
25360;DHT22;13311;51.386;0.016;2024-01-07T09:15:03;5.20;97.20
25360;DHT22;13311;51.386;0.016;2024-01-07T09:20:06;5.30;97.20
25360;DHT22;13311;51.386;0.016;2024-01-07T09:25:08;5.40;97.20
25360;DHT22;13311;51.386;0.016;2024-01-07T09:30:12;5.60;97.00
25360;DHT22;13311;51.386;0.016;2024-01-07T09:35:15;5.80;96.90
25360;DHT22;13311;51.386;0.016;2024-01-07T09:40:19;5.90;96.40
25360;DHT22;13311;51.386;0.016;2024-01-07T09:45:20;6.10;96.10
25360;DHT22;13311;51.386;0.016;2024-01-07T09:50:22;6.20;95.90
25360;DHT22;13311;51.386;0.016;2024-01-07T09:55:31;6.40;95.60
25360;DHT22;13311;51.386;0.016;2024-01-07T10:00:34;6.50;95.60
25360;DHT22;13311;51.386;0.016;2024-01-07T10:05:36;6.70;95.50
25360;DHT22;13311;51.386;0.016;2024-01-07T10:10:36;6.70;95.30
25360;DHT22;13311;51.386;0.016;2024-01-07T10:15:38;6.80;95.10
25360;DHT22;13311;51.386;0.016;2024-01-07T10:20:39;7.00;94.70
25360;DHT22;13311;51.386;0.016;2024-01-07T10:25:40;7.30;94.60
25360;DHT22;13311;51.386;0.016;2024-01-07T10:30:40;7.50;94.20
25360;DHT22;13311;51.386;0.016;2024-01-07T10:35:54;7.50;93.80
25360;DHT22;13311;51.386;0.016;2024-01-07T10:40:57;7.70;93.80
25360;DHT22;13311;51.386;0.016;2024-01-07T10:46:01;8.00;94.00
25360;DHT22;13311;51.386;0.016;2024-01-07T10:51:04;8.00;93.10
25360;DHT22;13311;51.386;0.016;2024-01-07T10:56:08;8.10;92.70
25360;DHT22;13311;51.386;0.016;2024-01-07T11:01:12;8.20;92.50
25360;DHT22;13311;51.386;0.016;2024-01-07T11:06:33;8.20;92.00
25360;DHT22;13311;51.386;0.016;2024-01-07T11:11:40;8.20;91.80
25360;DHT22;13311;51.386;0.016;2024-01-07T11:16:44;8.00;91.10
25360;DHT22;13311;51.386;0.016;2024-01-07T11:21:45;8.00;90.80
25360;DHT22;13311;51.386;0.016;2024-01-07T11:26:46;7.80;90.80
25360;DHT22;13311;51.386;0.016;2024-01-07T11:31:47;7.60;90.90
25360;DHT22;13311;51.386;0.016;2024-01-07T11:36:48;7.90;91.00
25360;DHT22;13311;51.386;0.016;2024-01-07T11:41:49;7.80;90.30
25360;DHT22;13311;51.386;0.016;2024-01-07T11:46:51;7.80;90.80
25360;DHT22;13311;51.386;0.016;2024-01-07T11:51:51;7.80;90.60
25360;DHT22;13311;51.386;0.016;2024-01-07T11:56:53;7.80;91.70
25360;DHT22;13311;51.386;0.016;2024-01-07T12:01:54;7.80;91.20
25360;DHT22;13311;51.386;0.016;2024-01-07T12:06:55;7.90;91.70
25360;DHT22;13311;51.386;0.016;2024-01-07T12:11:56;7.80;91.30
25360;DHT22;13311;51.386;0.016;2024-01-07T12:16:57;7.60;91.10
25360;DHT22;13311;51.386;0.016;2024-01-07T12:22:07;7.60;91.30
25360;DHT22;13311;51.386;0.016;2024-01-07T12:27:07;7.50;91.10
25360;DHT22;13311;51.386;0.016;2024-01-07T12:32:09;7.40;90.70
25360;DHT22;13311;51.386;0.016;2024-01-07T12:37:13;7.40;90.90
25360;DHT22;13311;51.386;0.016;2024-01-07T12:42:14;7.30;91.30
25360;DHT22;13311;51.386;0.016;2024-01-07T12:47:16;7.30;90.90
25360;DHT22;13311;51.386;0.016;2024-01-07T12:52:16;7.40;91.40
25360;DHT22;13311;51.386;0.016;2024-01-07T12:57:17;7.30;90.90
25360;DHT22;13311;51.386;0.016;2024-01-07T13:02:18;7.40;91.70
25360;DHT22;13311;51.386;0.016;2024-01-07T13:07:19;7.50;91.30
25360;DHT22;13311;51.386;0.016;2024-01-07T13:12:19;7.40;91.10
25360;DHT22;13311;51.386;0.016;2024-01-07T13:17:20;7.30;91.00
25360;DHT22;13311;51.386;0.016;2024-01-07T13:22:21;7.30;91.00
25360;DHT22;13311;51.386;0.016;2024-01-07T13:27:22;7.30;91.00
25360;DHT22;13311;51.386;0.016;2024-01-07T13:32:24;7.30;90.90
25360;DHT22;13311;51.386;0.016;2024-01-07T13:37:24;7.20;90.80
25360;DHT22;13311;51.386;0.016;2024-01-07T13:42:25;7.30;90.80
25360;DHT22;13311;51.386;0.016;2024-01-07T13:47:26;7.30;90.70
25360;DHT22;13311;51.386;0.016;2024-01-07T13:52:27;7.30;90.50
25360;DHT22;13311;51.386;0.016;2024-01-07T13:57:30;7.20;90.70
25360;DHT22;13311;51.386;0.016;2024-01-07T14:02:35;7.30;90.60
25360;DHT22;13311;51.386;0.016;2024-01-07T14:07:38;7.20;90.70
25360;DHT22;13311;51.386;0.016;2024-01-07T14:12:39;7.30;90.60
25360;DHT22;13311;51.386;0.016;2024-01-07T14:17:40;7.40;90.70
25360;DHT22;13311;51.386;0.016;2024-01-07T14:22:42;7.40;91.00
25360;DHT22;13311;51.386;0.016;2024-01-07T14:27:43;7.50;91.00
25360;DHT22;13311;51.386;0.016;2024-01-07T14:32:44;7.50;90.70
25360;DHT22;13311;51.386;0.016;2024-01-07T14:37:45;7.40;90.60
25360;DHT22;13311;51.386;0.016;2024-01-07T14:42:45;7.20;90.70
25360;DHT22;13311;51.386;0.016;2024-01-07T14:47:46;7.20;90.60
25360;DHT22;13311;51.386;0.016;2024-01-07T14:52:47;7.30;90.90
25360;DHT22;13311;51.386;0.016;2024-01-07T14:57:49;7.30;90.80
25360;DHT22;13311;51.386;0.016;2024-01-07T15:02:50;7.10;90.70
25360;DHT22;13311;51.386;0.016;2024-01-07T15:07:51;7.10;90.80
25360;DHT22;13311;51.386;0.016;2024-01-07T15:12:52;7.20;90.60
25360;DHT22;13311;51.386;0.016;2024-01-07T15:17:52;7.30;90.50
25360;DHT22;13311;51.386;0.016;2024-01-07T15:22:53;7.30;90.30
25360;DHT22;13311;51.386;0.016;2024-01-07T15:27:54;7.20;90.30
25360;DHT22;13311;51.386;0.016;2024-01-07T15:32:55;7.20;90.60
25360;DHT22;13311;51.386;0.016;2024-01-07T15:37:55;7.20;90.30
25360;DHT22;13311;51.386;0.016;2024-01-07T15:42:58;7.30;90.90
25360;DHT22;13311;51.386;0.016;2024-01-07T15:48:00;7.10;90.20
25360;DHT22;13311;51.386;0.016;2024-01-07T15:53:00;7.00;90.50
25360;DHT22;13311;51.386;0.016;2024-01-07T15:58:02;7.00;90.30
25360;DHT22;13311;51.386;0.016;2024-01-07T16:03:03;7.20;90.40
25360;DHT22;13311;51.386;0.016;2024-01-07T16:08:04;7.20;90.10
25360;DHT22;13311;51.386;0.016;2024-01-07T16:13:05;7.00;90.00
25360;DHT22;13311;51.386;0.016;2024-01-07T16:18:06;6.90;90.20
25360;DHT22;13311;51.386;0.016;2024-01-07T16:23:07;6.90;90.20
25360;DHT22;13311;51.386;0.016;2024-01-07T16:28:08;6.80;90.30
25360;DHT22;13311;51.386;0.016;2024-01-07T16:33:11;6.90;90.70
25360;DHT22;13311;51.386;0.016;2024-01-07T16:38:12;6.90;90.50
25360;DHT22;13311;51.386;0.016;2024-01-07T16:43:12;6.80;90.10
25360;DHT22;13311;51.386;0.016;2024-01-07T16:48:13;6.80;90.50
25360;DHT22;13311;51.386;0.016;2024-01-07T16:53:14;6.70;90.70
25360;DHT22;13311;51.386;0.016;2024-01-07T16:58:15;6.70;90.70
25360;DHT22;13311;51.386;0.016;2024-01-07T17:03:16;6.80;90.90
25360;DHT22;13311;51.386;0.016;2024-01-07T17:08:18;6.70;91.30
25360;DHT22;13311;51.386;0.016;2024-01-07T17:13:19;6.70;91.50
25360;DHT22;13311;51.386;0.016;2024-01-07T17:18:20;6.60;92.00
25360;DHT22;13311;51.386;0.016;2024-01-07T17:23:20;6.60;92.20
25360;DHT22;13311;51.386;0.016;2024-01-07T17:28:24;6.50;92.80
25360;DHT22;13311;51.386;0.016;2024-01-07T17:33:25;6.40;94.00
25360;DHT22;13311;51.386;0.016;2024-01-07T17:38:26;6.40;94.00
25360;DHT22;13311;51.386;0.016;2024-01-07T17:43:26;6.30;94.20
25360;DHT22;13311;51.386;0.016;2024-01-07T17:48:27;6.30;94.30
25360;DHT22;13311;51.386;0.016;2024-01-07T17:53:31;6.20;94.60
25360;DHT22;13311;51.386;0.016;2024-01-07T17:58:32;6.30;94.60
25360;DHT22;13311;51.386;0.016;2024-01-07T18:03:34;6.30;94.70
25360;DHT22;13311;51.386;0.016;2024-01-07T18:08:37;6.40;95.10
25360;DHT22;13311;51.386;0.016;2024-01-07T18:13:37;6.50;94.60
25360;DHT22;13311;51.386;0.016;2024-01-07T18:18:38;6.40;94.80
25360;DHT22;13311;51.386;0.016;2024-01-07T18:23:40;6.40;94.90
25360;DHT22;13311;51.386;0.016;2024-01-07T18:28:42;6.40;94.80
25360;DHT22;13311;51.386;0.016;2024-01-07T18:33:45;6.20;95.00
25360;DHT22;13311;51.386;0.016;2024-01-07T18:38:46;6.20;95.20
25360;DHT22;13311;51.386;0.016;2024-01-07T18:43:47;6.30;95.10
25360;DHT22;13311;51.386;0.016;2024-01-07T18:48:48;6.20;95.10
25360;DHT22;13311;51.386;0.016;2024-01-07T18:53:48;6.20;95.10
25360;DHT22;13311;51.386;0.016;2024-01-07T18:58:49;6.30;95.00
25360;DHT22;13311;51.386;0.016;2024-01-07T19:03:50;6.30;95.00
25360;DHT22;13311;51.386;0.016;2024-01-07T19:08:51;6.30;95.00
25360;DHT22;13311;51.386;0.016;2024-01-07T19:13:53;6.20;94.80
25360;DHT22;13311;51.386;0.016;2024-01-07T19:18:54;6.20;95.00
25360;DHT22;13311;51.386;0.016;2024-01-07T19:23:54;6.20;94.40
25360;DHT22;13311;51.386;0.016;2024-01-07T19:28:56;6.20;94.50
25360;DHT22;13311;51.386;0.016;2024-01-07T19:33:57;6.30;94.30
25360;DHT22;13311;51.386;0.016;2024-01-07T19:38:59;6.20;93.90
25360;DHT22;13311;51.386;0.016;2024-01-07T19:44:05;6.10;94.10
25360;DHT22;13311;51.386;0.016;2024-01-07T19:49:07;6.30;94.50
25360;DHT22;13311;51.386;0.016;2024-01-07T19:54:09;6.40;93.80
25360;DHT22;13311;51.386;0.016;2024-01-07T19:59:10;6.40;93.90
25360;DHT22;13311;51.386;0.016;2024-01-07T20:04:12;6.40;93.80
25360;DHT22;13311;51.386;0.016;2024-01-07T20:09:13;6.40;94.00
25360;DHT22;13311;51.386;0.016;2024-01-07T20:14:14;6.40;93.80
25360;DHT22;13311;51.386;0.016;2024-01-07T20:19:14;6.30;93.60
25360;DHT22;13311;51.386;0.016;2024-01-07T20:24:15;6.20;93.50
25360;DHT22;13311;51.386;0.016;2024-01-07T20:29:16;6.30;93.30
25360;DHT22;13311;51.386;0.016;2024-01-07T20:34:17;6.30;93.50
25360;DHT22;13311;51.386;0.016;2024-01-07T20:39:20;6.30;93.30
25360;DHT22;13311;51.386;0.016;2024-01-07T20:44:24;6.30;93.40
25360;DHT22;13311;51.386;0.016;2024-01-07T20:49:25;6.30;93.50
25360;DHT22;13311;51.386;0.016;2024-01-07T20:54:25;6.30;93.90
25360;DHT22;13311;51.386;0.016;2024-01-07T20:59:26;6.40;93.90
25360;DHT22;13311;51.386;0.016;2024-01-07T21:04:27;6.30;93.90
25360;DHT22;13311;51.386;0.016;2024-01-07T21:09:28;6.30;94.00
25360;DHT22;13311;51.386;0.016;2024-01-07T21:14:29;6.20;94.50
25360;DHT22;13311;51.386;0.016;2024-01-07T21:19:30;6.10;94.20
25360;DHT22;13311;51.386;0.016;2024-01-07T21:24:31;6.10;93.80
25360;DHT22;13311;51.386;0.016;2024-01-07T21:29:31;6.00;93.80
25360;DHT22;13311;51.386;0.016;2024-01-07T21:34:37;5.90;94.00
25360;DHT22;13311;51.386;0.016;2024-01-07T21:39:38;6.00;94.40
25360;DHT22;13311;51.386;0.016;2024-01-07T21:44:40;5.90;94.70
25360;DHT22;13311;51.386;0.016;2024-01-07T21:49:48;6.00;95.10
25360;DHT22;13311;51.386;0.016;2024-01-07T21:54:50;6.00;95.10
25360;DHT22;13311;51.386;0.016;2024-01-07T21:59:51;5.90;95.10
25360;DHT22;13311;51.386;0.016;2024-01-07T22:04:51;6.00;95.10
25360;DHT22;13311;51.386;0.016;2024-01-07T22:09:52;6.00;95.20
25360;DHT22;13311;51.386;0.016;2024-01-07T22:14:53;6.00;95.10
25360;DHT22;13311;51.386;0.016;2024-01-07T22:19:53;6.00;95.00
25360;DHT22;13311;51.386;0.016;2024-01-07T22:24:54;6.00;94.80
25360;DHT22;13311;51.386;0.016;2024-01-07T22:29:55;6.00;94.50
25360;DHT22;13311;51.386;0.016;2024-01-07T22:34:56;5.90;94.60
25360;DHT22;13311;51.386;0.016;2024-01-07T22:39:57;6.00;94.70
25360;DHT22;13311;51.386;0.016;2024-01-07T22:44:57;6.00;94.30
25360;DHT22;13311;51.386;0.016;2024-01-07T22:49:58;5.90;94.50
25360;DHT22;13311;51.386;0.016;2024-01-07T22:54:59;5.90;94.20
25360;DHT22;13311;51.386;0.016;2024-01-07T23:00:00;6.00;94.00
25360;DHT22;13311;51.386;0.016;2024-01-07T23:05:00;6.00;94.10
25360;DHT22;13311;51.386;0.016;2024-01-07T23:10:01;6.00;94.00
25360;DHT22;13311;51.386;0.016;2024-01-07T23:15:04;6.10;94.10
25360;DHT22;13311;51.386;0.016;2024-01-07T23:20:06;6.00;94.10
25360;DHT22;13311;51.386;0.016;2024-01-07T23:25:09;6.10;93.90
25360;DHT22;13311;51.386;0.016;2024-01-07T23:30:11;5.90;94.10
25360;DHT22;13311;51.386;0.016;2024-01-07T23:35:11;5.90;94.10
25360;DHT22;13311;51.386;0.016;2024-01-07T23:40:12;5.90;93.70
25360;DHT22;13311;51.386;0.016;2024-01-07T23:45:13;5.90;93.60
25360;DHT22;13311;51.386;0.016;2024-01-07T23:50:14;5.70;93.70
25360;DHT22;13311;51.386;0.016;2024-01-07T23:55:15;5.80;93.40
